createdAt,value
2022-12-18T00:01:29.892Z,1.20
2022-12-18T00:03:57.256Z,1.10
2022-12-18T00:06:27.249Z,1.20
2022-12-18T00:08:54.671Z,1.10
2022-12-18T00:11:24.242Z,1.10
2022-12-18T00:13:51.387Z,1.10
2022-12-18T00:16:21.987Z,1.10
2022-12-18T00:18:50.990Z,1.10
2022-12-18T00:21:18.963Z,1.10
2022-12-18T00:23:47.168Z,1.10
2022-12-18T00:26:23.014Z,1.10
2022-12-18T00:28:53.902Z,1.10
2022-12-18T00:31:23.638Z,1.00
2022-12-18T00:33:55.370Z,1.00
2022-12-18T00:36:32.405Z,1.00
2022-12-18T00:39:02.265Z,1.00
2022-12-18T00:41:56.277Z,0.90
2022-12-18T00:44:23.331Z,0.90
2022-12-18T00:46:51.522Z,0.90
2022-12-18T00:49:20.524Z,0.90
2022-12-18T00:51:48.092Z,0.90
2022-12-18T00:54:15.830Z,0.90
2022-12-18T00:56:49.387Z,0.90
2022-12-18T00:59:20.558Z,0.90
2022-12-18T01:01:48.176Z,0.90
2022-12-18T01:04:16.103Z,0.90
2022-12-18T01:06:45.946Z,0.90
2022-12-18T01:09:13.229Z,0.80
2022-12-18T01:11:40.753Z,0.80
2022-12-18T01:14:08.481Z,0.80
2022-12-18T01:16:38.690Z,0.80
2022-12-18T01:19:05.729Z,0.80
2022-12-18T01:21:33.536Z,0.70
2022-12-18T01:24:05.937Z,0.70
2022-12-18T01:26:33.204Z,0.70
2022-12-18T01:29:00.457Z,0.70
2022-12-18T01:31:30.506Z,0.70
2022-12-18T01:33:58.473Z,0.60
2022-12-18T01:36:30.860Z,0.70
2022-12-18T01:39:00.145Z,0.70
2022-12-18T01:41:49.636Z,0.70
2022-12-18T01:44:48.470Z,0.60
2022-12-18T01:47:37.720Z,0.60
2022-12-18T01:50:13.902Z,0.60
2022-12-18T01:52:43.263Z,0.60
2022-12-18T01:55:11.489Z,0.50
2022-12-18T01:57:39.979Z,0.50
2022-12-18T02:00:13.826Z,0.50
2022-12-18T02:02:43.652Z,0.40
2022-12-18T02:05:13.669Z,0.50
2022-12-18T02:07:47.050Z,0.40
2022-12-18T02:10:14.780Z,0.50
2022-12-18T02:12:54.024Z,0.40
2022-12-18T02:16:00.764Z,0.40
2022-12-18T02:18:33.775Z,0.40
2022-12-18T02:21:20.446Z,0.40
2022-12-18T02:24:05.622Z,0.50
2022-12-18T02:26:56.753Z,0.40
2022-12-18T02:29:45.434Z,0.40
2022-12-18T02:32:17.921Z,0.40
2022-12-18T02:34:47.716Z,0.40
2022-12-18T02:37:18.765Z,0.40
2022-12-18T02:39:49.868Z,0.30
2022-12-18T02:42:18.765Z,0.30
2022-12-18T02:44:47.675Z,0.30
2022-12-18T02:47:21.338Z,0.30
2022-12-18T02:50:27.232Z,0.20
2022-12-18T02:53:20.823Z,0.20
2022-12-18T02:55:56.002Z,0.20
2022-12-18T02:58:50.553Z,0.20
2022-12-18T03:01:52.250Z,0.20
2022-12-18T03:04:31.624Z,0.10
2022-12-18T03:07:27.507Z,0.10
2022-12-18T03:09:57.539Z,0.10
2022-12-18T03:12:35.506Z,0.10
2022-12-18T03:15:19.742Z,0.10
2022-12-18T03:17:57.763Z,0.10
2022-12-18T03:20:30.163Z,0.10
2022-12-18T03:23:03.598Z,0.10
2022-12-18T03:25:32.901Z,0.10
2022-12-18T03:28:02.505Z,0.10
2022-12-18T03:30:33.119Z,0.00
2022-12-18T03:33:08.769Z,0.00
2022-12-18T03:35:42.753Z,0.00
2022-12-18T03:38:15.570Z,0.00
2022-12-18T03:41:28.617Z,0.00
2022-12-18T03:45:15.489Z,0.00
2022-12-18T03:48:15.897Z,0.00
2022-12-18T03:51:09.641Z,0.00
2022-12-18T03:54:11.133Z,0.00
2022-12-18T03:57:08.753Z,-0.10
2022-12-18T03:59:37.939Z,-0.10
2022-12-18T04:02:08.031Z,-0.20
2022-12-18T04:04:38.345Z,-0.20
2022-12-18T04:07:06.461Z,-0.30
2022-12-18T04:09:37.095Z,-0.30
2022-12-18T04:12:06.051Z,-0.40
2022-12-18T04:14:36.687Z,-0.40
2022-12-18T04:17:05.852Z,-0.50
2022-12-18T04:19:41.339Z,-0.50
2022-12-18T04:22:35.551Z,-0.50
2022-12-18T04:25:02.869Z,-0.50
2022-12-18T04:27:36.847Z,-0.50
2022-12-18T04:30:06.062Z,-0.50
2022-12-18T04:32:35.188Z,-0.60
2022-12-18T04:35:05.180Z,-0.60
2022-12-18T04:37:33.715Z,-0.60
2022-12-18T04:40:38.906Z,-0.60
2022-12-18T04:43:14.851Z,-0.60
2022-12-18T04:46:07.965Z,-0.60
2022-12-18T04:48:35.710Z,-0.60
2022-12-18T04:51:26.130Z,-0.70
2022-12-18T04:53:54.426Z,-0.70
2022-12-18T04:56:21.754Z,-0.70
2022-12-18T04:58:49.057Z,-0.70
2022-12-18T05:01:18.467Z,-0.70
2022-12-18T05:03:46.188Z,-0.70
2022-12-18T05:06:23.802Z,-0.80
2022-12-18T05:08:51.662Z,-0.80
2022-12-18T05:11:18.992Z,-0.80
2022-12-18T05:13:46.588Z,-0.90
2022-12-18T05:16:15.245Z,-0.90
2022-12-18T05:18:42.772Z,-0.90
2022-12-18T05:21:09.802Z,-1.00
2022-12-18T05:23:37.336Z,-1.00
2022-12-18T05:26:07.364Z,-1.00
2022-12-18T05:28:36.658Z,-1.00
2022-12-18T05:31:05.595Z,-1.10
2022-12-18T05:33:35.053Z,-1.10
2022-12-18T05:36:04.456Z,-1.20
2022-12-18T05:38:32.726Z,-1.20
2022-12-18T05:40:59.695Z,-1.30
2022-12-18T05:43:27.825Z,-1.30
2022-12-18T05:45:55.698Z,-1.30
2022-12-18T05:48:22.817Z,-1.30
2022-12-18T05:50:51.393Z,-1.30
2022-12-18T05:53:20.422Z,-1.30
2022-12-18T05:55:48.094Z,-1.30
2022-12-18T05:58:15.549Z,-1.30
2022-12-18T06:00:45.976Z,-1.30
2022-12-18T06:03:14.772Z,-1.40
2022-12-18T06:05:46.324Z,-1.40
2022-12-18T06:08:14.541Z,-1.40
2022-12-18T06:10:43.121Z,-1.40
2022-12-18T06:13:10.319Z,-1.50
2022-12-18T06:15:38.468Z,-1.50
2022-12-18T06:18:05.578Z,-1.50
2022-12-18T06:20:33.831Z,-1.50
2022-12-18T06:23:01.509Z,-1.50
2022-12-18T06:25:28.736Z,-1.60
2022-12-18T06:27:56.150Z,-1.50
2022-12-18T06:30:23.651Z,-1.50
2022-12-18T06:32:56.344Z,-1.50
2022-12-18T06:35:25.500Z,-1.50
2022-12-18T06:37:52.611Z,-1.50
2022-12-18T06:40:19.867Z,-1.50
2022-12-18T06:42:47.107Z,-1.60
2022-12-18T06:45:14.291Z,-1.60
2022-12-18T06:47:41.688Z,-1.60
2022-12-18T06:50:08.817Z,-1.60
2022-12-18T06:52:35.971Z,-1.60
2022-12-18T06:55:02.961Z,-1.60
2022-12-18T06:57:29.982Z,-1.60
2022-12-18T07:00:00.294Z,-1.60
2022-12-18T07:02:27.545Z,-1.60
2022-12-18T07:04:55.099Z,-1.60
2022-12-18T07:07:22.244Z,-1.60
2022-12-18T07:09:51.311Z,-1.60
2022-12-18T07:12:18.422Z,-1.60
2022-12-18T07:14:45.428Z,-1.60
2022-12-18T07:17:12.429Z,-1.60
2022-12-18T07:19:39.435Z,-1.60
2022-12-18T07:22:06.391Z,-1.60
2022-12-18T07:24:35.107Z,-1.60
2022-12-18T07:27:03.042Z,-1.60
2022-12-18T07:29:29.962Z,-1.60
2022-12-18T07:31:57.015Z,-1.60
2022-12-18T07:34:24.356Z,-1.60
2022-12-18T07:36:51.856Z,-1.60
2022-12-18T07:39:18.911Z,-1.60
2022-12-18T07:42:09.061Z,-1.60
2022-12-18T07:44:36.246Z,-1.60
2022-12-18T07:47:06.539Z,-1.60
2022-12-18T07:49:36.045Z,-1.60
2022-12-18T07:52:03.386Z,-1.60
2022-12-18T07:54:30.479Z,-1.60
2022-12-18T07:56:57.509Z,-1.60
2022-12-18T07:59:24.753Z,-1.60
2022-12-18T08:01:51.845Z,-1.50
2022-12-18T08:04:18.924Z,-1.50
2022-12-18T08:06:48.074Z,-1.40
2022-12-18T08:09:15.623Z,-1.30
2022-12-18T08:11:42.588Z,-1.20
2022-12-18T08:14:09.746Z,-1.20
2022-12-18T08:16:36.936Z,-1.10
2022-12-18T08:19:04.039Z,-1.00
2022-12-18T08:21:32.133Z,-1.00
2022-12-18T08:24:01.749Z,-0.90
2022-12-18T08:26:31.114Z,-0.80
2022-12-18T08:29:00.415Z,-0.60
2022-12-18T08:31:29.378Z,-0.30
2022-12-18T08:33:57.531Z,0.20
2022-12-18T08:36:25.574Z,0.60
2022-12-18T08:38:53.840Z,1.10
2022-12-18T08:41:21.412Z,1.50
2022-12-18T08:44:06.965Z,1.80
2022-12-18T08:46:39.748Z,2.00
2022-12-18T08:49:08.228Z,2.10
2022-12-18T08:51:36.087Z,2.10
2022-12-18T08:54:04.351Z,2.00
2022-12-18T08:56:34.110Z,2.00
2022-12-18T08:59:01.926Z,2.00
2022-12-18T09:01:29.474Z,2.00
2022-12-18T09:03:56.817Z,2.20
2022-12-18T09:06:24.377Z,2.40
2022-12-18T09:08:51.592Z,2.70
2022-12-18T09:11:25.591Z,3.00
2022-12-18T09:13:53.871Z,3.40
2022-12-18T09:16:23.943Z,3.80
2022-12-18T09:19:00.211Z,4.20
2022-12-18T09:21:30.454Z,4.60
2022-12-18T09:23:58.003Z,5.00
2022-12-18T09:26:26.305Z,5.30
2022-12-18T09:28:56.030Z,5.60
2022-12-18T09:31:25.669Z,5.90
2022-12-18T09:33:52.744Z,6.20
2022-12-18T09:36:20.328Z,6.40
2022-12-18T09:38:49.045Z,6.60
2022-12-18T09:41:34.622Z,6.80
2022-12-18T09:44:11.083Z,7.00
2022-12-18T09:46:41.632Z,7.20
2022-12-18T09:49:15.715Z,7.30
2022-12-18T09:51:55.498Z,7.50
2022-12-18T09:54:34.030Z,7.70
2022-12-18T09:57:02.149Z,7.80
2022-12-18T09:59:41.127Z,7.90
2022-12-18T10:02:27.867Z,8.00
2022-12-18T10:05:01.234Z,8.10
2022-12-18T10:07:40.100Z,8.20
2022-12-18T10:10:24.082Z,8.20
2022-12-18T10:13:05.835Z,8.20
2022-12-18T10:16:05.156Z,8.20
2022-12-18T10:19:10.456Z,8.30
2022-12-18T10:21:43.684Z,8.30
2022-12-18T10:24:16.845Z,8.20
2022-12-18T10:26:44.922Z,8.20
2022-12-18T10:29:18.082Z,8.20
2022-12-18T10:31:45.317Z,8.20
2022-12-18T10:34:16.506Z,8.20
2022-12-18T10:36:43.840Z,8.20
2022-12-18T10:39:23.721Z,8.20
2022-12-18T10:41:50.840Z,8.20
2022-12-18T10:44:23.512Z,8.20
2022-12-18T10:47:10.100Z,8.30
2022-12-18T10:49:43.169Z,8.30
2022-12-18T10:52:25.613Z,8.30
2022-12-18T10:55:05.289Z,8.40
2022-12-18T10:57:42.591Z,8.40
2022-12-18T11:00:31.444Z,8.50
2022-12-18T11:02:59.023Z,8.50
2022-12-18T11:05:34.211Z,8.50
2022-12-18T11:08:02.046Z,8.60
2022-12-18T11:10:41.050Z,8.60
2022-12-18T11:13:19.682Z,8.60
2022-12-18T11:15:47.296Z,8.60
2022-12-18T11:18:27.217Z,8.50
2022-12-18T11:20:59.809Z,8.50
2022-12-18T11:23:28.038Z,8.40
2022-12-18T11:26:07.064Z,8.40
2022-12-18T11:28:45.536Z,8.30
2022-12-18T11:31:32.471Z,8.20
2022-12-18T11:36:49.529Z,8.20
2022-12-18T11:39:40.423Z,8.20
2022-12-18T11:42:26.729Z,8.20
2022-12-18T11:45:09.319Z,8.30
2022-12-18T11:47:55.650Z,8.30
2022-12-18T11:50:44.767Z,8.30
2022-12-18T11:53:15.240Z,8.40
2022-12-18T11:56:01.673Z,8.40
2022-12-18T11:58:38.407Z,8.30
2022-12-18T12:01:24.679Z,8.30
2022-12-18T12:04:23.242Z,8.20
2022-12-18T12:07:01.496Z,8.20
2022-12-18T12:10:03.099Z,8.00
2022-12-18T12:12:49.360Z,7.90
2022-12-18T12:15:37.031Z,7.70
2022-12-18T12:18:25.435Z,7.50
2022-12-18T12:21:17.068Z,7.30
2022-12-18T12:24:06.618Z,7.20
2022-12-18T12:26:47.175Z,7.00
2022-12-18T12:29:26.804Z,6.80
2022-12-18T12:32:03.049Z,6.60
2022-12-18T12:34:39.204Z,6.40
2022-12-18T12:37:24.376Z,6.30
2022-12-18T12:39:56.147Z,6.10
2022-12-18T12:43:05.934Z,5.90
2022-12-18T12:45:46.447Z,5.70
2022-12-18T12:48:47.965Z,5.50
2022-12-18T12:51:27.062Z,5.30
2022-12-18T12:53:57.489Z,5.20
2022-12-18T12:56:31.109Z,5.00
2022-12-18T12:59:16.752Z,4.90
2022-12-18T13:02:12.501Z,4.80
2022-12-18T13:05:02.465Z,4.60
2022-12-18T13:07:38.819Z,4.50
2022-12-18T13:10:22.321Z,4.40
2022-12-18T13:12:57.075Z,4.30
2022-12-18T13:15:51.325Z,4.20
2022-12-18T13:18:22.163Z,4.10
2022-12-18T13:21:03.873Z,4.00
2022-12-18T13:23:50.874Z,3.90
2022-12-18T13:26:23.245Z,3.80
2022-12-18T13:28:57.163Z,3.70
2022-12-18T13:31:43.398Z,3.70
2022-12-18T13:34:30.901Z,3.50
2022-12-18T13:37:47.670Z,3.40
2022-12-18T13:40:41.312Z,3.30
2022-12-18T13:43:20.343Z,3.10
2022-12-18T13:46:00.565Z,3.00
2022-12-18T13:48:31.370Z,2.80
2022-12-18T13:51:08.235Z,2.70
2022-12-18T13:53:47.700Z,2.60
2022-12-18T13:56:25.649Z,2.50
2022-12-18T13:59:14.988Z,2.50
2022-12-18T14:02:11.350Z,2.40
2022-12-18T14:04:40.802Z,2.30
2022-12-18T14:07:26.454Z,2.20
2022-12-18T14:10:18.891Z,2.20
2022-12-18T14:13:03.104Z,2.20
2022-12-18T14:15:41.560Z,2.10
2022-12-18T14:18:26.965Z,2.00
2022-12-18T14:20:58.795Z,2.00
2022-12-18T14:23:36.697Z,2.00
2022-12-18T14:26:21.445Z,2.00
2022-12-18T14:28:48.669Z,1.90
2022-12-18T14:31:25.048Z,1.90
2022-12-18T14:33:53.795Z,1.90
2022-12-18T14:36:27.117Z,1.90
2022-12-18T14:38:56.388Z,1.90
2022-12-18T14:41:25.387Z,1.90
2022-12-18T14:43:54.971Z,1.80
2022-12-18T14:46:37.911Z,1.70
2022-12-18T14:49:19.889Z,1.70
2022-12-18T14:51:52.921Z,1.70
2022-12-18T14:54:21.939Z,1.60
2022-12-18T14:56:58.126Z,1.60
2022-12-18T14:59:26.347Z,1.50
2022-12-18T15:02:19.820Z,1.50
2022-12-18T15:04:47.450Z,1.50
2022-12-18T15:07:22.825Z,1.50
2022-12-18T15:10:08.888Z,1.40
2022-12-18T15:12:46.299Z,1.30
2022-12-18T15:15:52.717Z,1.30
2022-12-18T15:18:22.664Z,1.30
2022-12-18T15:21:00.537Z,1.20
2022-12-18T15:23:32.074Z,1.20
2022-12-18T15:26:04.196Z,1.20
2022-12-18T15:28:39.101Z,1.10
2022-12-18T15:31:10.889Z,1.00
2022-12-18T15:33:40.670Z,1.00
2022-12-18T15:36:14.344Z,0.90
2022-12-18T15:38:42.307Z,0.90
2022-12-18T15:41:24.190Z,0.80
2022-12-18T15:43:53.429Z,0.80
2022-12-18T15:46:22.702Z,0.70
2022-12-18T15:49:01.829Z,0.70
2022-12-18T15:51:36.839Z,0.60
2022-12-18T15:54:07.300Z,0.60
2022-12-18T15:56:53.010Z,0.50
2022-12-18T15:59:22.730Z,0.50
2022-12-18T16:01:52.363Z,0.50
2022-12-18T16:04:21.836Z,0.50
2022-12-18T16:09:40.763Z,0.40
2022-12-18T16:12:18.709Z,0.40
2022-12-18T16:14:46.031Z,0.40
2022-12-18T16:17:14.311Z,0.30
2022-12-18T16:19:41.820Z,0.30
2022-12-18T16:22:23.683Z,0.30
2022-12-18T16:24:52.629Z,0.30
2022-12-18T16:27:20.041Z,0.20
2022-12-18T16:29:47.763Z,0.20
2022-12-18T16:32:23.525Z,0.10
2022-12-18T16:34:51.766Z,0.10
2022-12-18T16:37:18.855Z,0.10
2022-12-18T16:39:46.079Z,0.10
2022-12-18T16:42:17.308Z,0.10
2022-12-18T16:44:46.163Z,0.10
2022-12-18T16:47:15.040Z,0.10
2022-12-18T16:49:43.246Z,0.10
2022-12-18T16:52:10.264Z,0.10
2022-12-18T16:54:37.606Z,0.10
2022-12-18T16:57:07.651Z,0.10
2022-12-18T16:59:34.687Z,0.10
2022-12-18T17:02:06.328Z,0.10
2022-12-18T17:04:35.042Z,0.10
2022-12-18T17:07:02.460Z,0.10
2022-12-18T17:09:29.581Z,0.10
2022-12-18T17:11:56.713Z,0.10
2022-12-18T17:14:25.030Z,0.10
2022-12-18T17:17:19.926Z,0.10
2022-12-18T17:19:43.509Z,0.20
2022-12-18T17:22:11.251Z,0.10
2022-12-18T17:24:38.564Z,0.20
2022-12-18T17:27:05.905Z,0.20
2022-12-18T17:29:32.990Z,0.20
2022-12-18T17:32:00.654Z,0.20
2022-12-18T17:34:28.734Z,0.20
2022-12-18T17:36:57.163Z,0.20
2022-12-18T17:39:24.313Z,0.20
2022-12-18T17:41:51.541Z,0.30
2022-12-18T17:44:18.840Z,0.30
2022-12-18T17:46:46.621Z,0.20
2022-12-18T17:49:14.194Z,0.20
2022-12-18T17:51:43.209Z,0.20
2022-12-18T17:54:11.141Z,0.30
2022-12-18T17:56:39.256Z,0.30
2022-12-18T17:59:07.253Z,0.30
2022-12-18T18:01:38.521Z,0.30
2022-12-18T18:04:08.249Z,0.30
2022-12-18T18:06:38.847Z,0.30
2022-12-18T18:09:16.105Z,0.30
2022-12-18T18:12:05.505Z,0.30
2022-12-18T18:14:33.619Z,0.30
2022-12-18T18:17:04.779Z,0.30
2022-12-18T18:19:33.738Z,0.30
2022-12-18T18:22:02.929Z,0.30
2022-12-18T18:24:30.429Z,0.30
2022-12-18T18:26:59.687Z,0.30
2022-12-18T18:29:29.197Z,0.30
2022-12-18T18:31:56.578Z,0.30
2022-12-18T18:34:30.285Z,0.30
2022-12-18T18:37:01.669Z,0.30
2022-12-18T18:39:29.049Z,0.30
2022-12-18T18:41:58.943Z,0.40
2022-12-18T18:44:26.609Z,0.30
2022-12-18T18:46:58.432Z,0.30
2022-12-18T18:49:28.013Z,0.30
2022-12-18T18:51:57.117Z,0.30
2022-12-18T18:54:24.959Z,0.30
2022-12-18T18:59:39.165Z,0.30
2022-12-18T19:02:09.013Z,0.30
2022-12-18T19:04:38.463Z,0.30
2022-12-18T19:07:15.034Z,0.30
2022-12-18T19:09:52.253Z,0.30
2022-12-18T19:12:37.810Z,0.30
2022-12-18T19:15:07.975Z,0.30
2022-12-18T19:17:36.600Z,0.30
2022-12-18T19:20:05.173Z,0.30
2022-12-18T19:22:32.239Z,0.30
2022-12-18T19:24:59.923Z,0.30
2022-12-18T19:27:27.081Z,0.30
2022-12-18T19:29:54.387Z,0.30
2022-12-18T19:32:21.595Z,0.30
2022-12-18T19:34:48.736Z,0.30
2022-12-18T19:37:16.994Z,0.30
2022-12-18T19:39:44.131Z,0.40
2022-12-18T19:42:11.045Z,0.40
2022-12-18T19:44:38.246Z,0.40
2022-12-18T19:47:05.270Z,0.40
2022-12-18T19:49:33.170Z,0.40
2022-12-18T19:52:02.622Z,0.40
2022-12-18T19:54:31.107Z,0.40
2022-12-18T19:56:58.009Z,0.40
2022-12-18T19:59:25.009Z,0.40
2022-12-18T20:01:54.559Z,0.40
2022-12-18T20:04:21.790Z,0.40
2022-12-18T20:06:52.631Z,0.40
2022-12-18T20:09:21.262Z,0.40
2022-12-18T20:11:49.377Z,0.40
2022-12-18T20:14:19.625Z,0.40
2022-12-18T20:16:52.024Z,0.40
2022-12-18T20:19:19.975Z,0.40
2022-12-18T20:21:48.977Z,0.40
2022-12-18T20:24:16.087Z,0.40
2022-12-18T20:26:43.703Z,0.40
2022-12-18T20:29:10.678Z,0.40
2022-12-18T20:31:37.828Z,0.40
2022-12-18T20:34:06.052Z,0.40
2022-12-18T20:36:36.222Z,0.40
2022-12-18T20:39:06.522Z,0.40
2022-12-18T20:41:38.767Z,0.50
2022-12-18T20:44:10.961Z,0.50
2022-12-18T20:46:51.325Z,0.50
2022-12-18T20:49:18.515Z,0.50
2022-12-18T20:51:45.847Z,0.50
2022-12-18T20:54:12.798Z,0.60
2022-12-18T20:56:39.775Z,0.60
2022-12-18T20:59:07.362Z,0.60
2022-12-18T21:01:34.455Z,0.60
2022-12-18T21:04:02.842Z,0.70
2022-12-18T21:06:29.998Z,0.60
2022-12-18T21:08:57.004Z,0.60
2022-12-18T21:11:47.910Z,0.60
2022-12-18T21:14:19.848Z,0.70
2022-12-18T21:16:47.812Z,0.70
2022-12-18T21:19:20.541Z,0.70
2022-12-18T21:21:47.776Z,0.70
2022-12-18T21:24:15.140Z,0.70
2022-12-18T21:26:47.235Z,0.70
2022-12-18T21:29:25.676Z,0.70
2022-12-18T21:31:54.652Z,0.70
2022-12-18T21:34:30.542Z,0.70
2022-12-18T21:36:59.289Z,0.70
2022-12-18T21:39:27.568Z,0.70
2022-12-18T21:42:13.781Z,0.70
2022-12-18T21:44:42.468Z,0.70
2022-12-18T21:47:16.889Z,0.70
2022-12-18T21:49:50.113Z,0.70
2022-12-18T21:52:17.135Z,0.70
2022-12-18T21:54:44.247Z,0.70
2022-12-18T21:57:13.435Z,0.80
2022-12-18T21:59:42.590Z,0.80
2022-12-18T22:02:17.318Z,0.80
2022-12-18T22:04:45.489Z,0.80
2022-12-18T22:07:14.059Z,0.80
2022-12-18T22:09:42.744Z,0.80
2022-12-18T22:12:12.745Z,0.90
2022-12-18T22:14:39.762Z,0.90
2022-12-18T22:17:06.806Z,0.80
2022-12-18T22:19:38.109Z,0.90
2022-12-18T22:22:09.713Z,0.90
2022-12-18T22:24:36.651Z,0.90
2022-12-18T22:27:03.651Z,0.90
2022-12-18T22:29:49.799Z,0.90
2022-12-18T22:32:21.283Z,0.90
2022-12-18T22:35:04.860Z,0.90
2022-12-18T22:37:34.200Z,0.90
2022-12-18T22:40:03.290Z,0.90
2022-12-18T22:42:31.581Z,0.90
2022-12-18T22:45:01.123Z,1.00
2022-12-18T22:47:30.416Z,1.00
2022-12-18T22:49:58.286Z,1.00
2022-12-18T22:52:25.815Z,1.00
2022-12-18T22:54:54.102Z,1.00
2022-12-18T22:57:22.946Z,1.00
2022-12-18T22:59:51.132Z,1.00
2022-12-18T23:02:19.299Z,1.00
2022-12-18T23:04:47.743Z,1.00
2022-12-18T23:07:15.659Z,1.00
2022-12-18T23:09:42.925Z,1.00
2022-12-18T23:12:17.308Z,1.00
2022-12-18T23:14:44.549Z,1.00
2022-12-18T23:17:11.614Z,1.10
2022-12-18T23:19:39.368Z,1.10
2022-12-18T23:22:11.799Z,1.10
2022-12-18T23:24:39.563Z,1.10
2022-12-18T23:27:09.418Z,1.10
2022-12-18T23:29:40.215Z,1.10
2022-12-18T23:32:07.642Z,1.10
2022-12-18T23:34:34.836Z,1.10
2022-12-18T23:37:04.035Z,1.10
2022-12-18T23:39:31.119Z,1.10
2022-12-18T23:41:59.268Z,1.10
2022-12-18T23:44:26.642Z,1.10
2022-12-18T23:46:53.723Z,1.00
2022-12-18T23:49:20.759Z,1.00
2022-12-18T23:51:47.800Z,1.00
2022-12-18T23:54:14.709Z,1.00
2022-12-18T23:56:41.663Z,1.00
2022-12-18T23:59:08.666Z,1.00
